Frannie, WY

4:21 AM MDT on August 30, 2015 (GMT -0600)
APRSWXNET | | Change Station
CLOSE
Current Station
Personal Weather Station
Location: Frannie, WY
Elevation: 4274 ft
Nearby Weather Stations

Elev 4274 ft 45.00 °N, 108.62 °W | Updated 26 minutes ago

Partly Cloudy
Partly Cloudy
76 °F
Feels Like 78 °F
N
8
Wind Variable Wind from West
Gusts 0.0 mph

Today
High -- | Low -- °F
--% Chance of Precip.
Yesterday
High -- | Low -- °F
Precip. -- in
6:33 AM 7:55 PM
Full, 99% visible
Pressure 29.92 in
Visibility 10.0 miles
Clouds Few 12000 ft
Heat Index 78 °F
Dew Point 46 °F
Humidity 34%
Rainfall in
Snow Depth Not available.
UV 0 out of 12
Pollen 9.50 out of 12
Air Quality Not available.
Flu Activity Not available.
METAR KCOD 301015Z AUTO 26006KT 10SM FEW120 22/06 A2992 RMK AO1
Pressure 29.92 in
Visibility 10.0 miles
Clouds Few 12000 ft
Heat Index 78 °F
Dew Point 46 °F
Humidity 34%
Rainfall in
Snow Depth Not available.
UV 0 out of 12
Pollen 9.50 out of 12
Air Quality Not available.
Flu Activity Not available.
METAR KCOD 301015Z AUTO 26006KT 10SM FEW120 22/06 A2992 RMK AO1

10-Day Weather Forecast

×

Almanac

Astronomy

Aug. 30, 2015 Rise Set
Actual Time
Civil Twilight
Nautical Twilight
Astronomical Twilight
Moon
Length of Visible Light
Length of Day
Tomorrow will be .
, % of the Moon is Illuminated

Today's Extremes

State Highs State Lows

Community

WunderPhotos

Upload Photos

1,850,923 photos uploaded!

WunderBlogs® & News

Nearby

Air Quality

  Air Quality AQ Index Pollutant
Not available.

Snow Depth

Station Depth Elevation

Earthquake Activity

City Distance Mag. Time & Date
Minimum magnitude displayed is 2.5.

Coastal Water Temperatures

Place Temperature

Stations

Nearby Weather Stations

Station Location Temp. Windchill Dew Point Humidity Wind Precip. Elev Updated Type